createdAt,value
2022-10-24T00:01:24.041Z,1.85
2022-10-24T00:11:29.263Z,1.48
2022-10-24T00:21:31.917Z,1.48
2022-10-24T00:31:35.992Z,1.55
2022-10-24T00:41:42.711Z,1.40
2022-10-24T00:51:48.953Z,1.27
2022-10-24T01:01:51.708Z,1.40
2022-10-24T01:12:05.652Z,1.40
2022-10-24T01:22:14.234Z,1.70
2022-10-24T01:32:28.683Z,1.33
2022-10-24T01:42:33.856Z,1.38
2022-10-24T01:52:42.657Z,1.52
2022-10-24T02:02:50.891Z,1.73
2022-10-24T02:13:00.472Z,1.52
2022-10-24T02:23:10.454Z,1.95
2022-10-24T02:33:16.979Z,2.20
2022-10-24T02:43:21.949Z,1.70
2022-10-24T02:53:27.033Z,1.50
2022-10-24T03:03:29.690Z,1.80
2022-10-24T03:13:33.774Z,1.50
2022-10-24T03:23:36.525Z,1.77
2022-10-24T03:33:40.604Z,1.60
2022-10-24T03:43:43.419Z,1.60
2022-10-24T03:53:47.495Z,1.70
2022-10-24T04:03:50.210Z,2.28
2022-10-24T04:13:54.372Z,1.80
2022-10-24T04:23:57.026Z,2.20
2022-10-24T04:34:01.023Z,1.40
2022-10-24T04:44:03.669Z,1.90
2022-10-24T04:54:08.604Z,1.63
2022-10-24T05:04:12.536Z,2.00
2022-10-24T05:14:16.463Z,1.75
2022-10-24T05:24:19.163Z,1.73
2022-10-24T05:34:23.287Z,2.08
2022-10-24T05:44:26.116Z,1.52
2022-10-24T05:54:37.724Z,1.52
2022-10-24T06:04:51.864Z,1.50
2022-10-24T06:14:59.030Z,1.50
2022-10-24T06:25:01.759Z,1.48
2022-10-24T06:35:06.576Z,1.90
2022-10-24T06:45:10.069Z,2.17
2022-10-24T06:55:14.053Z,1.90
2022-10-24T07:05:17.099Z,1.40
2022-10-24T07:15:21.506Z,1.85
2022-10-24T07:25:24.164Z,1.73
2022-10-24T07:35:28.134Z,2.00
2022-10-24T07:45:32.215Z,1.45
2022-10-24T07:55:39.140Z,1.33
2022-10-24T08:05:41.975Z,1.10
2022-10-24T08:15:46.149Z,1.00
2022-10-24T08:25:48.738Z,1.27
2022-10-24T08:35:53.811Z,1.40
2022-10-24T08:46:03.720Z,1.10
2022-10-24T08:56:11.448Z,0.85
2022-10-24T09:06:18.856Z,0.90
2022-10-24T09:16:25.043Z,1.80
2022-10-24T09:26:30.858Z,1.35
2022-10-24T09:36:35.078Z,1.50
2022-10-24T09:46:44.941Z,1.17
2022-10-24T09:56:54.991Z,2.08
2022-10-24T10:06:57.759Z,1.00
2022-10-24T10:17:05.017Z,0.88
2022-10-24T10:27:27.392Z,1.13
2022-10-24T10:37:33.314Z,1.20
2022-10-24T10:47:47.099Z,1.17
2022-10-24T10:57:59.092Z,0.90
2022-10-24T11:08:08.537Z,0.80
2022-10-24T11:18:18.898Z,0.98
2022-10-24T11:28:27.001Z,1.10
2022-10-24T11:38:33.564Z,1.42
2022-10-24T11:48:41.548Z,1.20
2022-10-24T11:58:51.475Z,0.95
2022-10-24T12:09:09.594Z,1.05
2022-10-24T12:19:17.245Z,0.90
2022-10-24T12:29:24.971Z,1.08
2022-10-24T12:39:34.123Z,0.90
2022-10-24T12:49:36.776Z,0.82
2022-10-24T12:59:49.022Z,1.52
2022-10-24T13:10:02.762Z,1.17
2022-10-24T13:20:17.586Z,1.17
2022-10-24T13:30:26.951Z,1.10
2022-10-24T13:40:33.174Z,1.10
2022-10-24T13:50:39.768Z,1.10
2022-10-24T14:00:46.907Z,1.00
2022-10-24T14:10:50.921Z,0.90
2022-10-24T14:20:57.128Z,1.17
2022-10-24T14:31:02.252Z,0.80
2022-10-24T14:41:10.121Z,0.68
2022-10-24T14:51:18.898Z,0.85
2022-10-24T15:01:24.661Z,1.00
2022-10-24T15:11:30.640Z,0.80
2022-10-24T15:21:39.398Z,1.20
2022-10-24T15:31:43.875Z,1.10
2022-10-24T15:41:48.283Z,1.00
2022-10-24T15:51:51.992Z,1.52
2022-10-24T16:02:00.170Z,1.45
2022-10-24T16:12:02.935Z,1.50
2022-10-24T16:22:08.513Z,1.70
2022-10-24T16:32:12.052Z,1.65
2022-10-24T16:42:16.802Z,1.40
2022-10-24T16:52:19.464Z,1.42
2022-10-24T17:02:23.408Z,1.55
2022-10-24T17:12:27.412Z,1.50
2022-10-24T17:22:43.148Z,1.50
2022-10-24T17:32:49.851Z,1.77
2022-10-24T17:42:54.624Z,2.08
2022-10-24T17:52:57.204Z,1.85
2022-10-24T18:03:01.166Z,2.20
2022-10-24T18:13:03.861Z,2.20
2022-10-24T18:23:07.886Z,2.10
2022-10-24T18:33:10.555Z,2.63
2022-10-24T18:43:14.803Z,2.28
2022-10-24T18:53:23.877Z,2.92
2022-10-24T19:03:33.603Z,2.75
2022-10-24T19:13:36.354Z,2.38
2022-10-24T19:23:40.336Z,2.97
2022-10-24T19:33:49.836Z,2.25
2022-10-24T19:43:53.856Z,2.40
2022-10-24T19:53:56.999Z,2.63
2022-10-24T20:04:01.315Z,1.65
2022-10-24T20:14:03.939Z,2.00
2022-10-24T20:24:09.543Z,1.85
2022-10-24T20:34:12.350Z,1.58
2022-10-24T20:44:16.755Z,1.95
2022-10-24T20:54:19.703Z,2.00
2022-10-24T21:04:23.711Z,1.83
2022-10-24T21:14:26.368Z,1.70
2022-10-24T21:24:30.373Z,2.33
2022-10-24T21:34:34.603Z,2.08
2022-10-24T21:44:39.246Z,1.77
2022-10-24T21:54:41.903Z,2.33
2022-10-24T22:04:45.897Z,1.88
2022-10-24T22:14:48.528Z,1.75
2022-10-24T22:24:52.599Z,2.47
2022-10-24T22:34:55.804Z,2.25
2022-10-24T22:45:00.320Z,2.20
2022-10-24T22:55:04.038Z,2.30
2022-10-24T23:05:14.816Z,2.50
2022-10-24T23:15:20.171Z,3.28
2022-10-24T23:25:25.142Z,3.10
2022-10-24T23:35:28.416Z,3.75
2022-10-24T23:45:36.820Z,3.05
2022-10-24T23:55:39.916Z,3.30
